createdAt,value
2023-03-18T00:00:40.389Z,6.05
2023-03-18T00:01:40.399Z,6.18
2023-03-18T00:02:40.455Z,6.18
2023-03-18T00:03:40.423Z,6.67
2023-03-18T00:04:40.342Z,6.92
2023-03-18T01:33:48.098Z,6.33
2023-03-18T01:34:48.339Z,5.43
2023-03-18T01:35:48.540Z,4.94
2023-03-18T01:36:48.747Z,5.64
2023-03-18T01:37:48.963Z,5.93
2023-03-18T02:03:55.091Z,5.60
2023-03-18T02:06:55.790Z,4.53
2023-03-18T02:07:55.957Z,5.30
2023-03-18T02:08:56.279Z,4.87
2023-03-18T02:09:56.433Z,4.70
2023-03-18T02:11:56.855Z,4.61
2023-03-18T02:12:57.145Z,4.00
2023-03-18T02:13:57.286Z,4.29
2023-03-18T02:14:57.500Z,4.88
2023-03-18T02:15:57.688Z,6.02
2023-03-18T02:16:57.991Z,6.41
2023-03-18T02:17:58.123Z,4.15
2023-03-18T02:18:58.386Z,3.81
2023-03-18T02:19:58.545Z,4.08
2023-03-18T02:20:58.819Z,4.05
2023-03-18T02:21:58.981Z,4.84
2023-03-18T02:22:59.120Z,5.22
2023-03-18T02:23:59.381Z,5.70
2023-03-18T02:24:59.609Z,6.23
2023-03-18T02:25:59.753Z,5.10
2023-03-18T02:27:00.051Z,5.75
2023-03-18T02:28:00.190Z,4.51
2023-03-18T02:29:00.421Z,4.25
2023-03-18T02:30:00.557Z,4.43
2023-03-18T02:31:00.833Z,5.19
2023-03-18T02:32:00.935Z,5.31
2023-03-18T02:33:01.181Z,5.90
2023-03-18T02:34:01.333Z,6.23
2023-03-18T02:35:01.538Z,6.22
2023-03-18T02:36:01.807Z,7.06
2023-03-18T02:37:01.911Z,7.53
2023-03-18T02:38:02.192Z,7.78
2023-03-18T02:39:02.332Z,6.33
2023-03-18T02:40:02.466Z,6.04
2023-03-18T02:41:02.683Z,4.98
2023-03-18T02:42:02.920Z,6.17
2023-03-18T02:43:03.052Z,5.86
2023-03-18T02:44:03.261Z,5.83
2023-03-18T02:45:03.488Z,4.02
2023-03-18T02:46:03.773Z,4.04
2023-03-18T02:47:03.890Z,4.83
2023-03-18T02:48:04.110Z,4.79
2023-03-18T02:50:04.466Z,5.11
2023-03-18T02:51:04.636Z,4.48
2023-03-18T02:52:04.815Z,4.03
2023-03-18T02:53:05.028Z,4.30
2023-03-18T02:54:05.214Z,3.90
2023-03-18T02:55:05.460Z,4.40
2023-03-18T02:56:05.619Z,3.58
2023-03-18T02:57:05.817Z,4.05
2023-03-18T02:58:06.031Z,4.11
2023-03-18T02:59:06.269Z,4.12
2023-03-18T03:00:06.493Z,4.53
2023-03-18T03:01:06.667Z,4.61
2023-03-18T03:02:06.895Z,4.16
2023-03-18T03:03:07.211Z,3.54
2023-03-18T03:04:07.321Z,4.21
2023-03-18T03:05:07.498Z,3.69
2023-03-18T03:06:07.650Z,4.14
2023-03-18T03:07:07.797Z,4.06
2023-03-18T03:08:08.018Z,3.92
2023-03-18T03:42:14.990Z,3.49
2023-03-18T03:43:15.237Z,4.11
2023-03-18T03:44:15.439Z,4.58
2023-03-18T03:45:15.665Z,3.24
2023-03-18T03:46:15.928Z,5.23
2023-03-18T03:47:16.162Z,6.62
2023-03-18T03:48:16.504Z,6.34
2023-03-18T03:49:16.729Z,5.80
2023-03-18T03:50:16.989Z,5.70
2023-03-18T03:51:17.202Z,4.05
2023-03-18T03:52:17.428Z,3.88
2023-03-18T03:53:17.657Z,4.50
2023-03-18T03:54:18.629Z,4.84
2023-03-18T03:55:17.976Z,4.22
2023-03-18T03:56:18.032Z,5.13
2023-03-18T03:57:18.083Z,4.31
2023-03-18T03:58:18.127Z,4.30
2023-03-18T03:59:18.188Z,4.36
2023-03-18T04:00:18.200Z,4.37
2023-03-18T04:01:18.201Z,4.03
2023-03-18T04:02:18.254Z,4.00
2023-03-18T04:03:18.324Z,4.29
2023-03-18T04:04:18.424Z,5.48
2023-03-18T04:05:18.400Z,4.91
2023-03-18T04:06:18.469Z,8.02
2023-03-18T04:07:18.537Z,7.15
2023-03-18T04:08:18.602Z,5.53
2023-03-18T04:09:18.653Z,5.40
2023-03-18T04:10:18.693Z,6.68
2023-03-18T04:11:18.718Z,7.38
2023-03-18T04:12:18.867Z,4.58
2023-03-18T04:13:19.052Z,3.87
2023-03-18T04:17:20.040Z,5.03
2023-03-18T04:40:24.992Z,5.31
2023-03-18T04:41:25.208Z,4.92
2023-03-18T04:42:25.435Z,5.45
2023-03-18T04:43:25.678Z,6.36
2023-03-18T04:44:25.877Z,5.46
2023-03-18T04:45:26.123Z,5.66
2023-03-18T04:46:26.355Z,4.95
2023-03-18T05:27:35.077Z,6.01
2023-03-18T05:28:35.320Z,5.97
2023-03-18T05:29:35.501Z,4.97
2023-03-18T05:30:35.775Z,5.24
2023-03-18T05:31:36.083Z,4.45
2023-03-18T05:32:36.244Z,3.91
2023-03-18T05:33:36.507Z,4.28
2023-03-18T05:34:36.606Z,4.59
2023-03-18T05:35:36.941Z,4.53
2023-03-18T05:36:37.108Z,5.00
2023-03-18T05:37:37.387Z,4.24
2023-03-18T05:38:37.516Z,4.66
2023-03-18T05:39:37.745Z,4.19
2023-03-18T05:40:37.963Z,4.34
2023-03-18T05:41:38.256Z,5.52
2023-03-18T05:42:46.066Z,4.37
2023-03-18T05:43:39.488Z,4.80
2023-03-18T05:44:38.524Z,5.27
2023-03-18T05:45:40.348Z,4.70
2023-03-18T05:46:38.602Z,4.63
2023-03-18T05:47:38.655Z,4.28
2023-03-18T05:48:38.689Z,5.37
2023-03-18T05:49:38.814Z,4.59
2023-03-18T05:50:38.787Z,4.26
2023-03-18T05:51:38.786Z,4.39
2023-03-18T05:52:38.832Z,4.44
2023-03-18T05:53:38.869Z,4.43
2023-03-18T05:54:38.943Z,4.61
2023-03-18T05:55:39.014Z,5.61
2023-03-18T05:56:39.068Z,4.66
2023-03-18T05:57:39.126Z,4.88
2023-03-18T05:58:39.178Z,4.66
2023-03-18T05:59:39.243Z,4.80
2023-03-18T06:00:39.324Z,5.08
2023-03-18T06:01:39.401Z,4.45
2023-03-18T06:02:39.538Z,4.57
2023-03-18T06:03:39.674Z,4.25
2023-03-18T06:04:39.688Z,5.12
2023-03-18T06:05:39.785Z,4.19
2023-03-18T06:06:39.853Z,4.07
2023-03-18T06:07:39.943Z,4.16
2023-03-18T06:08:40.012Z,4.41
2023-03-18T06:09:40.088Z,4.18
2023-03-18T06:10:40.149Z,3.40
2023-03-18T06:11:40.270Z,4.59
2023-03-18T06:12:40.326Z,4.09
2023-03-18T06:13:40.429Z,3.62
2023-03-18T06:14:40.550Z,3.73
2023-03-18T06:15:40.633Z,3.16
2023-03-18T06:16:40.762Z,4.55
2023-03-18T06:17:40.791Z,4.00
2023-03-18T06:18:40.891Z,3.77
2023-03-18T06:19:41.007Z,4.56
2023-03-18T06:20:41.090Z,4.62
2023-03-18T06:21:41.183Z,3.93
2023-03-18T06:22:41.271Z,3.96
2023-03-18T06:23:41.326Z,4.39
2023-03-18T06:24:41.345Z,4.59
2023-03-18T06:25:41.391Z,4.38
2023-03-18T06:26:41.420Z,4.54
2023-03-18T06:27:41.491Z,4.67
2023-03-18T06:28:41.516Z,4.90
2023-03-18T06:29:41.574Z,4.37
2023-03-18T06:30:41.673Z,3.60
2023-03-18T06:31:41.723Z,4.06
2023-03-18T06:32:41.859Z,4.26
2023-03-18T06:33:41.901Z,3.91
2023-03-18T06:34:41.984Z,3.90
2023-03-18T06:35:42.068Z,4.41
2023-03-18T06:36:42.134Z,4.09
2023-03-18T06:37:42.226Z,4.12
2023-03-18T06:38:42.416Z,5.09
2023-03-18T06:39:42.603Z,5.34
2023-03-18T06:40:42.882Z,5.55
2023-03-18T06:41:43.104Z,5.12
2023-03-18T06:42:43.396Z,5.67
2023-03-18T06:43:43.479Z,5.91
2023-03-18T06:44:43.770Z,5.65
2023-03-18T06:45:43.938Z,5.82
2023-03-18T06:46:44.206Z,5.62
2023-03-18T06:51:45.144Z,4.44
2023-03-18T06:52:45.352Z,4.16
2023-03-18T06:53:45.555Z,4.63
2023-03-18T06:54:45.766Z,3.93
2023-03-18T06:55:46.003Z,4.29
2023-03-18T06:56:46.440Z,4.68
2023-03-18T06:57:46.431Z,4.82
2023-03-18T06:58:46.702Z,4.21
2023-03-18T06:59:46.863Z,4.58
2023-03-18T07:00:47.141Z,4.14
2023-03-18T07:01:47.277Z,4.57
2023-03-18T07:02:47.460Z,3.74
2023-03-18T07:03:47.708Z,4.12
2023-03-18T07:04:47.948Z,5.20
2023-03-18T07:05:48.145Z,5.05
2023-03-18T07:06:48.323Z,5.06
2023-03-18T07:07:48.597Z,5.60
2023-03-18T07:08:48.756Z,5.72
2023-03-18T07:09:49.021Z,6.40
2023-03-18T07:36:55.030Z,5.20
2023-03-18T07:37:55.358Z,5.45
2023-03-18T07:38:55.560Z,6.22
2023-03-18T07:39:55.817Z,6.99
2023-03-18T07:40:56.005Z,5.82
2023-03-18T07:42:56.445Z,6.43
2023-03-18T07:43:56.661Z,6.13
2023-03-18T07:44:56.887Z,6.29
2023-03-18T07:45:57.074Z,5.64
2023-03-18T07:46:57.262Z,6.17
2023-03-18T07:47:58.252Z,6.22
2023-03-18T07:48:57.466Z,5.60
2023-03-18T07:49:57.510Z,5.51
2023-03-18T07:50:57.524Z,5.38
2023-03-18T07:51:57.573Z,5.83
2023-03-18T07:52:57.605Z,5.69
2023-03-18T07:53:57.620Z,6.44
2023-03-18T07:54:57.665Z,5.79
2023-03-18T07:55:57.691Z,5.61
2023-03-18T07:56:57.777Z,6.07
2023-03-18T07:57:57.760Z,5.25
2023-03-18T07:58:57.803Z,6.21
2023-03-18T07:59:57.844Z,6.50
2023-03-18T08:00:57.880Z,5.94
2023-03-18T08:01:58.168Z,5.83
2023-03-18T08:02:57.971Z,5.18
2023-03-18T08:03:58.039Z,6.44
2023-03-18T08:04:58.089Z,6.67
2023-03-18T08:05:58.046Z,6.80
2023-03-18T08:06:58.132Z,7.76
2023-03-18T08:07:58.385Z,6.39
2023-03-18T08:08:58.555Z,6.75
2023-03-18T08:09:58.720Z,6.48
2023-03-18T08:10:58.900Z,6.05
2023-03-18T08:11:59.069Z,6.42
2023-03-18T08:12:59.261Z,6.11
2023-03-18T08:13:59.463Z,6.66
2023-03-18T08:42:05.095Z,6.05
2023-03-18T08:43:05.266Z,6.89
2023-03-18T09:33:14.986Z,7.00
2023-03-18T09:34:15.236Z,6.70
2023-03-18T09:35:15.396Z,6.47
2023-03-18T09:36:15.735Z,6.83
2023-03-18T09:37:15.778Z,6.48
2023-03-18T09:38:16.038Z,6.52
2023-03-18T09:39:16.236Z,6.84
2023-03-18T09:40:16.457Z,6.77
2023-03-18T10:23:25.112Z,5.79
2023-03-18T10:24:25.366Z,6.59
2023-03-18T10:25:25.524Z,5.24
2023-03-18T10:26:25.719Z,5.47
2023-03-18T10:27:25.914Z,6.63
2023-03-18T10:28:26.143Z,6.22
2023-03-18T10:29:26.322Z,6.14
2023-03-18T10:30:26.522Z,6.01
2023-03-18T10:31:26.738Z,6.12
2023-03-18T10:32:35.898Z,6.64
2023-03-18T10:33:27.883Z,6.19
2023-03-18T10:34:26.667Z,6.56
2023-03-18T10:35:26.569Z,5.54
2023-03-18T10:36:26.474Z,5.89
2023-03-18T10:37:26.380Z,5.48
2023-03-18T10:38:26.292Z,5.12
2023-03-18T10:39:26.219Z,4.97
2023-03-18T10:40:26.121Z,5.76
2023-03-18T10:41:27.738Z,5.82
2023-03-18T10:42:25.942Z,5.62
2023-03-18T10:43:25.862Z,5.86
2023-03-18T10:44:25.830Z,5.60
2023-03-18T10:45:25.730Z,5.10
2023-03-18T10:46:25.793Z,5.82
2023-03-18T10:47:25.564Z,5.39
2023-03-18T10:48:25.434Z,5.48
2023-03-18T10:49:25.346Z,5.31
2023-03-18T10:50:25.232Z,5.20
2023-03-18T10:51:25.139Z,5.42
2023-03-18T10:52:25.331Z,5.08
2023-03-18T10:53:25.585Z,5.90
2023-03-18T10:54:25.750Z,5.33
2023-03-18T10:55:25.874Z,5.68
2023-03-18T10:56:26.029Z,5.47
2023-03-18T10:57:26.246Z,5.04
2023-03-18T10:58:26.382Z,4.28
2023-03-18T10:59:26.566Z,5.11
2023-03-18T11:00:26.761Z,5.23
2023-03-18T11:01:27.063Z,5.08
2023-03-18T11:02:27.181Z,5.02
2023-03-18T11:03:27.343Z,5.11
2023-03-18T11:04:27.469Z,5.90
2023-03-18T11:05:27.756Z,5.12
2023-03-18T11:06:29.244Z,4.60
2023-03-18T11:07:27.771Z,4.49
2023-03-18T11:08:27.657Z,5.35
2023-03-18T11:09:27.732Z,5.26
2023-03-18T11:10:27.912Z,5.93
2023-03-18T11:11:28.098Z,5.11
2023-03-18T11:12:28.312Z,4.78
2023-03-18T11:13:28.500Z,5.30
2023-03-18T11:14:28.684Z,4.59
2023-03-18T11:15:28.878Z,6.06
2023-03-18T11:16:29.155Z,5.15
2023-03-18T11:17:29.199Z,4.06
2023-03-18T11:18:29.532Z,3.95
2023-03-18T11:19:29.694Z,4.39
2023-03-18T11:20:29.873Z,4.29
2023-03-18T11:21:30.008Z,4.66
2023-03-18T11:22:30.212Z,3.17
2023-03-18T11:23:30.359Z,3.46
2023-03-18T11:24:30.537Z,3.38
2023-03-18T11:25:30.723Z,3.22
2023-03-18T11:26:30.899Z,3.46
2023-03-18T11:27:31.076Z,3.88
2023-03-18T11:28:31.244Z,3.79
2023-03-18T11:29:31.422Z,4.43
2023-03-18T11:30:35.169Z,5.03
2023-03-18T11:31:31.534Z,4.84
2023-03-18T11:32:31.576Z,4.59
2023-03-18T11:33:31.271Z,4.19
2023-03-18T11:34:31.142Z,4.02
2023-03-18T11:35:31.030Z,4.63
2023-03-18T11:36:30.890Z,4.10
2023-03-18T11:37:30.762Z,4.09
2023-03-18T11:38:30.640Z,4.32
2023-03-18T11:39:30.506Z,4.01
2023-03-18T11:40:30.605Z,3.81
2023-03-18T11:41:30.264Z,3.80
2023-03-18T11:42:30.113Z,3.46
2023-03-18T11:43:29.985Z,3.90
2023-03-18T11:44:29.849Z,3.75
2023-03-18T11:45:29.711Z,3.11
2023-03-18T11:46:29.591Z,2.39
2023-03-18T11:47:29.469Z,2.92
2023-03-18T11:48:29.351Z,2.74
2023-03-18T11:49:29.210Z,2.70
2023-03-18T11:50:29.123Z,2.50
2023-03-18T11:51:28.951Z,2.73
2023-03-18T11:52:28.802Z,2.23
2023-03-18T11:53:28.678Z,2.31
2023-03-18T11:54:28.544Z,2.48
2023-03-18T11:55:28.397Z,2.02
2023-03-18T11:56:28.271Z,2.11
2023-03-18T11:57:28.211Z,1.95
2023-03-18T11:58:28.012Z,2.16
2023-03-18T11:59:27.884Z,2.31
2023-03-18T12:00:27.818Z,2.01
2023-03-18T12:01:27.627Z,2.22
2023-03-18T12:02:27.591Z,2.40
2023-03-18T12:03:27.391Z,2.39
2023-03-18T12:04:27.263Z,2.30
2023-03-18T12:05:27.136Z,2.66
2023-03-18T12:06:27.008Z,2.14
2023-03-18T12:07:26.866Z,1.97
2023-03-18T12:08:26.747Z,2.28
2023-03-18T12:09:26.589Z,2.40
2023-03-18T12:10:26.468Z,1.90
2023-03-18T12:11:26.312Z,2.12
2023-03-18T12:12:26.170Z,2.23
2023-03-18T12:13:26.078Z,2.31
2023-03-18T12:14:25.973Z,2.07
2023-03-18T12:15:25.898Z,2.20
2023-03-18T12:16:25.799Z,2.04
2023-03-18T12:17:25.665Z,2.19
2023-03-18T12:18:25.548Z,2.16
2023-03-18T12:19:25.435Z,2.47
2023-03-18T12:20:25.318Z,2.54
2023-03-18T12:21:25.191Z,2.29
2023-03-18T12:22:25.032Z,2.45
2023-03-18T12:51:25.086Z,2.12
2023-03-18T12:52:25.249Z,2.11
2023-03-18T12:53:25.501Z,2.36
2023-03-18T12:54:25.641Z,2.15
2023-03-18T12:55:25.830Z,3.17
2023-03-18T12:56:25.957Z,1.98
2023-03-18T12:57:26.205Z,2.24
2023-03-18T12:58:26.302Z,1.94
2023-03-18T12:59:26.484Z,2.48
2023-03-18T13:00:26.895Z,2.26
2023-03-18T13:01:26.986Z,1.99
2023-03-18T13:02:27.219Z,2.23
2023-03-18T13:03:27.202Z,2.69
2023-03-18T13:04:27.368Z,2.24
2023-03-18T13:05:27.566Z,1.92
2023-03-18T13:06:27.699Z,2.60
2023-03-18T13:07:27.891Z,2.32
2023-03-18T13:08:28.016Z,2.40
2023-03-18T13:09:28.214Z,2.26
2023-03-18T13:10:28.332Z,2.47
2023-03-18T13:11:28.516Z,2.24
2023-03-18T13:12:28.667Z,2.33
2023-03-18T13:13:28.819Z,2.06
2023-03-18T13:14:28.981Z,3.20
2023-03-18T13:15:29.167Z,2.81
2023-03-18T13:16:29.387Z,2.73
2023-03-18T13:17:29.525Z,2.62
2023-03-18T13:18:29.701Z,2.57
2023-03-18T13:19:29.946Z,2.13
2023-03-18T13:20:30.083Z,2.41
2023-03-18T13:21:30.219Z,2.22
2023-03-18T13:22:30.349Z,2.28
2023-03-18T13:23:30.598Z,2.12
2023-03-18T13:24:30.732Z,2.67
2023-03-18T13:25:31.164Z,2.99
2023-03-18T13:26:31.124Z,3.03
2023-03-18T13:27:31.250Z,2.87
2023-03-18T13:28:31.500Z,2.83
2023-03-18T13:29:31.625Z,2.96
2023-03-18T13:30:32.019Z,2.78
2023-03-18T13:31:31.975Z,2.79
2023-03-18T13:32:32.263Z,2.70
2023-03-18T13:33:32.379Z,2.53
2023-03-18T13:34:32.641Z,2.42
2023-03-18T13:35:32.878Z,2.70
2023-03-18T13:36:32.981Z,2.38
2023-03-18T13:37:33.173Z,2.95
2023-03-18T13:38:33.498Z,2.66
2023-03-18T13:39:33.564Z,2.35
2023-03-18T13:40:34.044Z,2.18
2023-03-18T13:41:34.024Z,2.98
2023-03-18T13:42:34.272Z,2.16
2023-03-18T13:43:34.384Z,2.69
2023-03-18T13:46:35.886Z,2.20
2023-03-18T13:47:35.918Z,2.30
2023-03-18T13:48:36.119Z,2.09
2023-03-18T13:49:38.187Z,2.31
2023-03-18T13:50:36.123Z,2.30
2023-03-18T13:51:35.937Z,2.36
2023-03-18T13:52:35.759Z,2.13
2023-03-18T13:53:35.674Z,2.17
2023-03-18T13:54:35.377Z,1.98
2023-03-18T13:55:35.673Z,2.07
2023-03-18T13:56:35.601Z,2.02
2023-03-18T13:57:35.795Z,1.72
2023-03-18T14:50:45.025Z,1.68
2023-03-18T14:51:45.220Z,1.72
2023-03-18T14:52:45.396Z,2.08
2023-03-18T14:53:48.521Z,1.74
2023-03-18T14:54:45.299Z,2.09
2023-03-18T14:55:45.109Z,1.90
2023-03-18T15:02:45.066Z,1.72
2023-03-18T15:03:45.274Z,2.03
2023-03-18T15:04:45.391Z,1.52
2023-03-18T15:05:45.572Z,2.23
2023-03-18T15:06:45.742Z,2.04
2023-03-18T15:07:45.927Z,2.44
2023-03-18T15:08:48.390Z,2.20
2023-03-18T15:09:46.013Z,2.24
2023-03-18T15:10:45.814Z,2.01
2023-03-18T15:11:45.964Z,2.19
2023-03-18T15:12:46.163Z,1.62
2023-03-18T15:13:46.288Z,2.04
2023-03-18T15:14:46.442Z,1.70
2023-03-18T15:15:46.611Z,1.80
2023-03-18T15:16:46.785Z,1.58
2023-03-18T15:17:46.985Z,2.66
2023-03-18T15:18:47.138Z,2.02
2023-03-18T15:19:47.284Z,1.94
2023-03-18T15:20:47.494Z,2.34
2023-03-18T15:21:47.665Z,2.40
2023-03-18T15:22:47.729Z,2.86
2023-03-18T15:23:47.978Z,1.96
2023-03-18T15:24:48.140Z,1.80
2023-03-18T15:25:48.213Z,1.89
2023-03-18T15:26:48.409Z,1.76
2023-03-18T15:27:48.541Z,2.03
2023-03-18T15:28:48.750Z,2.40
2023-03-18T15:29:48.871Z,2.14
2023-03-18T15:30:49.085Z,2.75
2023-03-18T16:06:55.118Z,1.55
2023-03-18T16:07:55.272Z,1.46
2023-03-18T16:08:55.413Z,1.68
2023-03-18T16:09:55.584Z,1.54
2023-03-18T17:02:05.047Z,3.85
2023-03-18T17:03:05.304Z,5.14
2023-03-18T17:04:05.453Z,3.84
2023-03-18T17:55:15.205Z,2.73
2023-03-18T17:56:15.371Z,2.03
2023-03-18T17:57:15.584Z,2.39
2023-03-18T17:58:15.762Z,2.14
2023-03-18T17:59:15.985Z,2.17
2023-03-18T18:00:16.224Z,2.76
2023-03-18T18:01:16.396Z,2.52
2023-03-18T18:02:16.605Z,2.25
2023-03-18T18:03:16.812Z,2.44
2023-03-18T18:04:17.065Z,2.68
2023-03-18T18:05:17.293Z,2.21
2023-03-18T18:06:17.542Z,2.45
2023-03-18T18:07:17.794Z,3.30
2023-03-18T18:08:17.983Z,4.21
2023-03-18T18:09:18.147Z,5.16
2023-03-18T18:44:25.137Z,3.65
2023-03-18T18:45:25.375Z,3.37
2023-03-18T18:46:25.606Z,2.60
2023-03-18T18:47:25.790Z,3.62
2023-03-18T18:48:25.978Z,2.63
2023-03-18T19:36:35.127Z,3.07
2023-03-18T19:37:35.332Z,2.86
2023-03-18T19:39:35.704Z,3.46
2023-03-18T19:40:35.887Z,3.70
2023-03-18T19:41:36.163Z,3.84
2023-03-18T19:42:36.323Z,3.64
2023-03-18T19:43:36.489Z,4.08
2023-03-18T19:46:36.906Z,4.49
2023-03-18T19:47:36.924Z,4.61
2023-03-18T19:48:36.830Z,4.86
2023-03-18T20:32:45.001Z,6.08
2023-03-18T21:23:55.087Z,5.78
2023-03-18T21:24:55.440Z,5.68
2023-03-18T21:25:55.523Z,5.49
2023-03-18T21:27:04.801Z,5.90
2023-03-18T21:27:56.692Z,6.12
2023-03-18T21:28:55.624Z,6.09
2023-03-18T21:29:55.585Z,6.09
2023-03-18T21:30:58.078Z,5.79
2023-03-18T21:31:55.437Z,5.67
2023-03-18T21:32:55.436Z,6.10
2023-03-18T21:33:55.339Z,6.43
2023-03-18T21:34:55.273Z,6.64
2023-03-18T21:35:55.263Z,5.56
2023-03-18T21:36:55.153Z,5.98
2023-03-18T21:37:55.091Z,6.10
2023-03-18T21:38:55.031Z,5.81
2023-03-18T21:39:55.892Z,5.93
2023-03-18T22:43:55.049Z,7.14
2023-03-18T22:44:55.264Z,6.63
2023-03-18T22:45:55.489Z,6.05
2023-03-18T22:46:55.772Z,6.91
2023-03-18T22:47:55.847Z,7.50
2023-03-18T22:48:56.063Z,6.40
2023-03-18T22:49:56.285Z,7.00
2023-03-18T22:50:56.405Z,7.16
2023-03-18T22:51:56.615Z,7.54
2023-03-18T22:52:56.816Z,6.74
2023-03-18T22:53:57.128Z,7.01
2023-03-18T22:54:57.239Z,6.78
2023-03-18T22:55:57.434Z,6.77
2023-03-18T22:56:58.838Z,7.07
2023-03-18T22:57:57.616Z,7.42
2023-03-18T22:58:57.580Z,6.47
2023-03-18T22:59:57.541Z,7.38
2023-03-18T23:00:57.537Z,7.17
2023-03-18T23:01:57.507Z,7.75
2023-03-18T23:02:58.418Z,6.90
2023-03-18T23:03:57.458Z,6.91
2023-03-18T23:04:57.429Z,8.04
2023-03-18T23:05:57.389Z,7.16
2023-03-18T23:06:57.477Z,7.04
2023-03-18T23:07:57.316Z,6.82
2023-03-18T23:08:57.294Z,6.94
2023-03-18T23:09:57.404Z,5.82
2023-03-18T23:10:57.238Z,6.50
2023-03-18T23:11:57.208Z,6.41
2023-03-18T23:12:57.177Z,7.00
2023-03-18T23:13:57.141Z,7.39
2023-03-18T23:14:57.109Z,6.57
2023-03-18T23:15:57.164Z,7.02
2023-03-18T23:16:57.038Z,8.70
2023-03-18T23:17:57.007Z,7.85
2023-03-18T23:18:56.994Z,6.95
2023-03-18T23:19:56.973Z,7.22
2023-03-18T23:20:56.943Z,6.94
2023-03-18T23:21:56.910Z,6.89
2023-03-18T23:22:56.857Z,7.25
2023-03-18T23:23:56.840Z,7.13
2023-03-18T23:24:56.807Z,6.99
2023-03-18T23:25:56.772Z,6.68
2023-03-18T23:26:56.736Z,6.76
2023-03-18T23:27:56.695Z,6.41
2023-03-18T23:28:56.668Z,7.02
2023-03-18T23:29:56.648Z,6.70
2023-03-18T23:30:56.650Z,6.72
2023-03-18T23:31:56.587Z,6.39
2023-03-18T23:32:56.620Z,6.31
2023-03-18T23:33:56.563Z,7.36
2023-03-18T23:34:56.539Z,8.18
2023-03-18T23:35:56.546Z,6.98
2023-03-18T23:36:56.538Z,7.71
2023-03-18T23:37:56.502Z,7.06
2023-03-18T23:38:56.506Z,7.02
2023-03-18T23:39:56.481Z,7.08
2023-03-18T23:40:56.462Z,7.21
2023-03-18T23:41:56.453Z,7.28
2023-03-18T23:42:56.428Z,7.09
2023-03-18T23:43:56.381Z,7.13
2023-03-18T23:44:56.429Z,6.64
2023-03-18T23:45:56.504Z,6.38
2023-03-18T23:46:56.304Z,6.76
2023-03-18T23:47:56.283Z,7.10
2023-03-18T23:48:56.247Z,6.88
2023-03-18T23:49:56.221Z,6.92
2023-03-18T23:50:56.184Z,6.32
2023-03-18T23:51:56.424Z,6.91
2023-03-18T23:52:56.141Z,6.66
2023-03-18T23:53:56.108Z,7.59
2023-03-18T23:54:56.088Z,6.20
2023-03-18T23:55:56.077Z,6.79
2023-03-18T23:56:56.131Z,7.52
2023-03-18T23:57:56.113Z,7.33
2023-03-18T23:58:56.134Z,6.24
2023-03-18T23:59:56.133Z,6.43
